Time;durP1;ratioP1;P1;durP2;ratioP2;P2;SDS_P1;SDS_P2;PMS_P1;PMS_P2;Temp;Humidity;BMP_temperature;BMP_pressure;BME280_temperature;BME280_humidity;BME280_pressure;Samples;Min_cycle;Max_cycle;Signal;HPM_P1;HPM_P2
2023/03/28 00:01:29;;;;;;;;;;;;;;;7.71;nan;101425.50;5020226;28;20326;-85
2023/03/28 00:03:56;;;;;;;;;;;;;;;7.79;nan;101433.28;5015337;28;19917;-86
2023/03/28 00:06:23;;;;;;;;;;;;;;;7.74;nan;101438.44;5020608;28;19924;-86
2023/03/28 00:08:50;;;;;;;;;;;;;;;7.68;nan;101437.44;5007200;28;19921;-87
2023/03/28 00:11:19;;;;;;;;;;;;;;;7.71;nan;101449.50;5021170;28;19925;-87
2023/03/28 00:13:45;;;;;;;;;;;;;;;7.70;nan;101455.88;5023904;28;19960;-86
2023/03/28 00:16:12;;;;;;;;;;;;;;;7.71;nan;101463.66;5021183;28;19921;-86
2023/03/28 00:18:37;;;;;;;;;;;;;;;7.69;nan;101464.91;5013611;28;19932;-87
2023/03/28 00:21:06;;;;;;;;;;;;;;;7.71;nan;101470.84;5018868;28;20008;-86
2023/03/28 00:23:32;;;;;;;;;;;;;;;7.73;nan;101466.16;5014548;28;19964;-86
2023/03/28 00:26:02;;;;;;;;;;;;;;;7.68;nan;101466.75;5017781;28;20333;-85
2023/03/28 00:28:28;;;;;;;;;;;;;;;7.65;nan;101469.84;5018353;28;20370;-86
2023/03/28 00:31:03;;;;;;;;;;;;;;;7.64;nan;101478.06;5019052;28;19918;-86
2023/03/28 00:33:28;;;;;;;;;;;;;;;7.57;nan;101481.59;5021618;28;19923;-86
2023/03/28 00:35:55;;;;;;;;;;;;;;;7.53;nan;101493.69;5017328;28;19918;-87
2023/03/28 00:38:20;;;;;;;;;;;;;;;7.53;nan;101490.19;5019357;28;19929;-85
2023/03/28 00:40:47;;;;;;;;;;;;;;;7.50;nan;101487.97;5019634;28;20017;-86
2023/03/28 00:43:12;;;;;;;;;;;;;;;7.50;nan;101499.44;5018705;28;19920;-86
2023/03/28 00:45:38;;;;;;;;;;;;;;;7.50;nan;101504.78;5021537;28;20333;-86
2023/03/28 00:48:06;;;;;;;;;;;;;;;7.53;nan;101509.69;5016449;28;19917;-86
2023/03/28 00:50:39;;;;;;;;;;;;;;;7.50;nan;101515.44;5021538;28;19917;-86
2023/03/28 00:53:18;;;;;;;;;;;;;;;7.53;nan;101514.19;5020669;28;19964;-86
2023/03/28 00:55:50;;;;;;;;;;;;;;;7.50;nan;101520.78;5020500;28;20250;-86
2023/03/28 00:58:23;;;;;;;;;;;;;;;7.50;nan;101519.94;5022643;28;20072;-86
2023/03/28 01:00:53;;;;;;;;;;;;;;;7.44;nan;101534.94;5020875;28;19925;-85
2023/03/28 01:03:21;;;;;;;;;;;;;;;7.46;nan;101540.88;5018558;28;19925;-86
2023/03/28 01:05:46;;;;;;;;;;;;;;;7.46;nan;101540.88;5017353;28;20000;-86
2023/03/28 01:08:22;;;;;;;;;;;;;;;7.41;nan;101553.22;5016969;28;20019;-86
2023/03/28 01:10:48;;;;;;;;;;;;;;;7.35;nan;101548.69;5019674;28;20180;-86
2023/03/28 01:13:15;;;;;;;;;;;;;;;7.24;nan;101558.97;5019034;28;19921;-86
2023/03/28 01:15:41;;;;;;;;;;;;;;;7.20;nan;101559.59;5018060;28;20141;-86
2023/03/28 01:18:10;;;;;;;;;;;;;;;7.18;nan;101570.47;5018174;28;19933;-87
2023/03/28 01:20:35;;;;;;;;;;;;;;;7.23;nan;101561.84;5021269;28;19924;-87
2023/03/28 01:23:10;;;;;;;;;;;;;;;7.31;nan;101569.63;5020293;28;19921;-87
2023/03/28 01:25:38;;;;;;;;;;;;;;;7.32;nan;101560.59;5019143;28;19921;-86
2023/03/28 01:28:16;;;;;;;;;;;;;;;7.33;nan;101566.75;5017067;28;19925;-86
2023/03/28 01:30:47;;;;;;;;;;;;;;;7.38;nan;101567.78;5021668;28;20278;-87
2023/03/28 01:33:19;;;;;;;;;;;;;;;7.46;nan;101572.88;5014642;28;19921;-86
2023/03/28 01:35:44;;;;;;;;;;;;;;;7.47;nan;101579.84;5024487;28;20081;-87
2023/03/28 01:38:28;;;;;;;;;;;;;;;7.50;nan;101587.44;5014669;28;20406;-86
2023/03/28 01:40:58;;;;;;;;;;;;;;;7.40;nan;101588.91;5020662;28;19953;-86
2023/03/28 01:43:29;;;;;;;;;;;;;;;7.31;nan;101590.13;5016200;28;20142;-86
2023/03/28 01:45:54;;;;;;;;;;;;;;;7.28;nan;101588.69;5018729;28;19921;-86
2023/03/28 01:48:23;;;;;;;;;;;;;;;7.22;nan;101594.84;5017889;28;20516;-87
2023/03/28 01:50:53;;;;;;;;;;;;;;;7.17;nan;101594.63;5015786;28;20011;-86
2023/03/28 01:53:31;;;;;;;;;;;;;;;7.16;nan;101598.31;5015642;28;19975;-85
2023/03/28 01:56:02;;;;;;;;;;;;;;;7.10;nan;101605.28;5018438;28;19918;-86
2023/03/28 01:58:34;;;;;;;;;;;;;;;7.15;nan;101602.00;5016154;28;19929;-86
2023/03/28 02:01:09;;;;;;;;;;;;;;;7.19;nan;101604.09;5017300;28;19917;-86
2023/03/28 02:03:36;;;;;;;;;;;;;;;7.20;nan;101599.56;5017907;28;19929;-86
2023/03/28 02:06:05;;;;;;;;;;;;;;;7.23;nan;101607.97;5018782;28;19964;-86
2023/03/28 02:08:32;;;;;;;;;;;;;;;7.29;nan;101614.31;5014221;28;19921;-86
2023/03/28 02:10:57;;;;;;;;;;;;;;;7.31;nan;101619.44;5017249;28;20325;-86
2023/03/28 02:13:29;;;;;;;;;;;;;;;7.29;nan;101619.66;5014377;28;19983;-86
2023/03/28 02:15:56;;;;;;;;;;;;;;;7.31;nan;101622.09;5017593;28;19921;-86
2023/03/28 02:18:25;;;;;;;;;;;;;;;7.29;nan;101624.97;5018019;28;19921;-86
2023/03/28 02:20:54;;;;;;;;;;;;;;;7.27;nan;101627.03;5019923;28;19928;-86
2023/03/28 02:23:21;;;;;;;;;;;;;;;7.26;nan;101631.53;5014905;28;19928;-86
2023/03/28 02:25:48;;;;;;;;;;;;;;;7.30;nan;101641.78;5019651;28;19996;-85
2023/03/28 02:28:13;;;;;;;;;;;;;;;7.21;nan;101642.00;5017549;28;19921;-85
2023/03/28 02:30:39;;;;;;;;;;;;;;;7.19;nan;101643.25;5015834;28;19932;-86
2023/03/28 02:33:07;;;;;;;;;;;;;;;7.18;nan;101649.56;5020060;28;19970;-86
2023/03/28 02:35:45;;;;;;;;;;;;;;;7.14;nan;101649.16;5017641;28;20375;-86
2023/03/28 02:38:33;;;;;;;;;;;;;;;7.18;nan;101653.09;5013955;28;20036;-86
2023/03/28 02:40:59;;;;;;;;;;;;;;;7.09;nan;101651.63;5016636;28;20085;-86
2023/03/28 02:43:36;;;;;;;;;;;;;;;7.04;nan;101655.94;5017521;28;19952;-85
2023/03/28 02:46:02;;;;;;;;;;;;;;;7.03;nan;101657.78;5015303;28;19944;-85
2023/03/28 02:48:33;;;;;;;;;;;;;;;7.00;nan;101668.00;5016028;28;19991;-85
2023/03/28 02:51:05;;;;;;;;;;;;;;;6.99;nan;101672.50;5015524;28;20338;-85
2023/03/28 02:53:31;;;;;;;;;;;;;;;6.99;nan;101672.50;5018561;28;19976;-84
2023/03/28 02:56:09;;;;;;;;;;;;;;;6.98;nan;101679.66;5012187;28;19991;-85
2023/03/28 02:58:39;;;;;;;;;;;;;;;6.99;nan;101688.47;5017265;28;20398;-85
2023/03/28 03:01:09;;;;;;;;;;;;;;;7.03;nan;101689.75;5020912;28;19923;-85
2023/03/28 03:03:35;;;;;;;;;;;;;;;7.01;nan;101688.31;5024457;28;19928;-86
2023/03/28 03:06:01;;;;;;;;;;;;;;;7.02;nan;101692.63;5023226;28;19918;-85
2023/03/28 03:08:26;;;;;;;;;;;;;;;7.03;nan;101684.41;5024730;28;20268;-86
2023/03/28 03:10:52;;;;;;;;;;;;;;;7.05;nan;101692.22;5023936;28;19921;-86
2023/03/28 03:13:18;;;;;;;;;;;;;;;7.06;nan;101691.19;5023768;28;19932;-86
2023/03/28 03:15:44;;;;;;;;;;;;;;;7.09;nan;101693.44;5022106;28;19923;-86
2023/03/28 03:18:11;;;;;;;;;;;;;;;7.07;nan;101700.81;5023962;28;19929;-86
2023/03/28 03:20:39;;;;;;;;;;;;;;;7.06;nan;101710.66;5023244;28;19917;-86
2023/03/28 03:23:06;;;;;;;;;;;;;;;7.05;nan;101711.69;5022790;28;20008;-86
2023/03/28 03:25:31;;;;;;;;;;;;;;;7.02;nan;101719.25;5025057;28;20402;-86
2023/03/28 03:27:57;;;;;;;;;;;;;;;7.03;nan;101711.06;5021807;28;19925;-86
2023/03/28 03:30:22;;;;;;;;;;;;;;;7.02;nan;101717.41;5021034;28;19922;-86
2023/03/28 03:32:48;;;;;;;;;;;;;;;7.01;nan;101714.94;5020602;28;19921;-86
2023/03/28 03:35:13;;;;;;;;;;;;;;;7.03;nan;101715.56;5024905;28;19917;-86
2023/03/28 03:37:38;;;;;;;;;;;;;;;7.08;nan;101737.09;5021198;28;20028;-85
2023/03/28 03:40:07;;;;;;;;;;;;;;;7.03;nan;101732.38;5022749;28;20497;-85
2023/03/28 03:42:33;;;;;;;;;;;;;;;7.02;nan;101737.91;5022491;28;20354;-85
2023/03/28 03:44:58;;;;;;;;;;;;;;;7.01;nan;101741.59;5022549;28;19921;-86
2023/03/28 03:47:24;;;;;;;;;;;;;;;6.98;nan;101740.94;5021818;28;19924;-85
2023/03/28 03:49:49;;;;;;;;;;;;;;;6.94;nan;101744.22;5026519;28;19934;-85
2023/03/28 03:52:14;;;;;;;;;;;;;;;6.94;nan;101741.56;5020763;28;20297;-85
2023/03/28 03:54:40;;;;;;;;;;;;;;;6.88;nan;101756.50;5023598;28;19986;-85
2023/03/28 03:57:05;;;;;;;;;;;;;;;6.84;nan;101755.28;5024776;28;20430;-85
2023/03/28 03:59:31;;;;;;;;;;;;;;;6.76;nan;101750.09;5021683;28;19974;-85
2023/03/28 04:01:56;;;;;;;;;;;;;;;6.75;nan;101752.97;5024546;28;19952;-85
2023/03/28 04:04:22;;;;;;;;;;;;;;;6.75;nan;101772.41;5024513;28;19944;-86
2023/03/28 04:06:47;;;;;;;;;;;;;;;6.79;nan;101767.50;5023108;28;19924;-85
2023/03/28 04:09:13;;;;;;;;;;;;;;;6.80;nan;101769.97;5023462;28;20371;-86
2023/03/28 04:11:38;;;;;;;;;;;;;;;6.81;nan;101766.28;5025575;28;19960;-86
2023/03/28 04:14:04;;;;;;;;;;;;;;;6.83;nan;101774.94;5008245;28;20485;-85
2023/03/28 04:16:29;;;;;;;;;;;;;;;6.83;nan;101769.59;5018863;28;20043;-85
2023/03/28 04:18:55;;;;;;;;;;;;;;;6.82;nan;101780.44;5001541;28;19921;-85
2023/03/28 04:21:26;;;;;;;;;;;;;;;6.81;nan;101787.59;5018162;28;21274;-85
2023/03/28 04:23:51;;;;;;;;;;;;;;;6.76;nan;101790.03;5021572;28;19963;-85
2023/03/28 04:26:19;;;;;;;;;;;;;;;6.79;nan;101784.31;5020990;28;19965;-85
2023/03/28 04:28:45;;;;;;;;;;;;;;;6.76;nan;101784.72;5018001;28;20243;-85
2023/03/28 04:31:10;;;;;;;;;;;;;;;6.73;nan;101784.28;5016907;28;19970;-85
2023/03/28 04:33:36;;;;;;;;;;;;;;;6.68;nan;101787.56;5002096;28;19921;-85
2023/03/28 04:36:01;;;;;;;;;;;;;;;6.66;nan;101795.75;5021872;28;19963;-86
2023/03/28 04:38:28;;;;;;;;;;;;;;;6.70;nan;101790.03;5015933;28;20379;-86
2023/03/28 04:40:57;;;;;;;;;;;;;;;6.67;nan;101799.22;5019943;28;20440;-85
2023/03/28 04:43:23;;;;;;;;;;;;;;;6.68;nan;101800.06;5019163;28;19925;-85
2023/03/28 04:45:49;;;;;;;;;;;;;;;6.62;nan;101812.28;5018132;28;19920;-85
2023/03/28 04:48:14;;;;;;;;;;;;;;;6.61;nan;101818.63;5015473;28;19963;-85
2023/03/28 04:50:39;;;;;;;;;;;;;;;6.56;nan;101815.75;5016199;28;19944;-84
2023/03/28 04:53:05;;;;;;;;;;;;;;;6.55;nan;101824.75;5017020;28;19921;-84
2023/03/28 04:55:30;;;;;;;;;;;;;;;6.55;nan;101825.56;5016684;28;19925;-85
2023/03/28 04:57:56;;;;;;;;;;;;;;;6.54;nan;101829.25;5018296;28;20016;-85
2023/03/28 05:00:22;;;;;;;;;;;;;;;6.54;nan;101833.75;5018773;28;19925;-85
2023/03/28 05:02:47;;;;;;;;;;;;;;;6.52;nan;101841.13;5017368;28;19932;-85
2023/03/28 05:05:15;;;;;;;;;;;;;;;6.43;nan;101843.09;5019010;28;20406;-85
2023/03/28 05:07:41;;;;;;;;;;;;;;;6.33;nan;101840.78;5016516;28;19978;-86
2023/03/28 05:10:07;;;;;;;;;;;;;;;6.32;nan;101855.13;5016806;28;20382;-85
2023/03/28 05:12:32;;;;;;;;;;;;;;;6.34;nan;101857.59;5015090;28;19925;-85
2023/03/28 05:14:57;;;;;;;;;;;;;;;6.35;nan;101860.03;5018554;28;19921;-85
2023/03/28 05:17:23;;;;;;;;;;;;;;;6.36;nan;101869.69;5014376;28;21040;-85
2023/03/28 05:19:48;;;;;;;;;;;;;;;6.42;nan;101873.41;5015306;28;19925;-85
2023/03/28 05:22:14;;;;;;;;;;;;;;;6.43;nan;101880.38;5015827;28;19921;-85
2023/03/28 05:24:39;;;;;;;;;;;;;;;6.41;nan;101886.91;5014542;28;19921;-85
2023/03/28 05:27:04;;;;;;;;;;;;;;;6.42;nan;101880.56;5015688;28;20200;-86
2023/03/28 05:29:30;;;;;;;;;;;;;;;6.42;nan;101884.03;5015151;28;19917;-85
2023/03/28 05:31:55;;;;;;;;;;;;;;;6.48;nan;101887.78;5016452;28;19921;-85
2023/03/28 05:34:21;;;;;;;;;;;;;;;6.52;nan;101897.03;5016566;28;20325;-84
2023/03/28 05:36:46;;;;;;;;;;;;;;;6.55;nan;101896.66;5016136;28;19917;-84
2023/03/28 05:39:11;;;;;;;;;;;;;;;6.60;nan;101900.38;5017194;28;20481;-84
2023/03/28 05:41:37;;;;;;;;;;;;;;;6.61;nan;101910.00;5014916;28;19921;-84
2023/03/28 05:44:03;;;;;;;;;;;;;;;6.60;nan;101912.84;5015870;28;19952;-84
2023/03/28 05:46:28;;;;;;;;;;;;;;;6.66;nan;101914.78;5015009;28;19924;-84
2023/03/28 05:48:54;;;;;;;;;;;;;;;6.62;nan;101918.81;5016775;28;19925;-84
2023/03/28 05:51:19;;;;;;;;;;;;;;;6.66;nan;101917.44;5018185;28;20566;-84
2023/03/28 05:53:45;;;;;;;;;;;;;;;6.70;nan;101920.53;4997131;28;19947;-84
2023/03/28 05:56:10;;;;;;;;;;;;;;;6.71;nan;101920.34;5016104;28;19931;-84
2023/03/28 05:58:35;;;;;;;;;;;;;;;6.74;nan;101919.13;5016149;28;19976;-84
2023/03/28 06:01:03;;;;;;;;;;;;;;;6.79;nan;101933.50;5016644;28;19975;-84
2023/03/28 06:03:30;;;;;;;;;;;;;;;6.84;nan;101938.25;5017429;28;19927;-84
2023/03/28 06:05:56;;;;;;;;;;;;;;;6.89;nan;101941.97;5017157;28;19917;-84
2023/03/28 06:08:21;;;;;;;;;;;;;;;6.97;nan;101947.13;5019057;28;20466;-84
2023/03/28 06:10:47;;;;;;;;;;;;;;;7.06;nan;101947.81;5017298;28;19921;-84
2023/03/28 06:13:13;;;;;;;;;;;;;;;7.16;nan;101952.78;5018309;28;20023;-85
2023/03/28 06:15:38;;;;;;;;;;;;;;;7.22;nan;101946.69;5016059;28;19964;-85
2023/03/28 06:18:04;;;;;;;;;;;;;;;7.28;nan;101953.91;4999533;28;19952;-84
2023/03/28 06:20:29;;;;;;;;;;;;;;;7.38;nan;101961.56;4999691;28;20060;-85
2023/03/28 06:22:54;;;;;;;;;;;;;;;7.48;nan;101956.66;5001664;28;19917;-85
2023/03/28 06:25:20;;;;;;;;;;;;;;;7.56;nan;101968.00;5015786;28;20393;-85
2023/03/28 06:27:45;;;;;;;;;;;;;;;7.58;nan;101971.28;5014817;28;20084;-85
2023/03/28 06:30:11;;;;;;;;;;;;;;;7.54;nan;101972.72;5017423;28;20378;-85
2023/03/28 06:32:36;;;;;;;;;;;;;;;7.57;nan;101974.16;5020450;28;19924;-85
2023/03/28 06:35:02;;;;;;;;;;;;;;;7.62;nan;101973.56;5016439;28;19924;-85
2023/03/28 06:37:27;;;;;;;;;;;;;;;7.62;nan;101987.72;5003574;28;19956;-85
2023/03/28 06:39:53;;;;;;;;;;;;;;;7.58;nan;101986.47;5015521;28;19928;-85
2023/03/28 06:42:18;;;;;;;;;;;;;;;7.56;nan;101985.84;5015206;28;19921;-85
2023/03/28 06:44:44;;;;;;;;;;;;;;;7.53;nan;101997.72;5017287;28;19921;-86
2023/03/28 06:47:09;;;;;;;;;;;;;;;7.57;nan;101998.97;5016228;28;20512;-87
2023/03/28 06:49:35;;;;;;;;;;;;;;;7.60;nan;101994.28;5019086;28;20033;-86
2023/03/28 06:52:00;;;;;;;;;;;;;;;7.55;nan;102008.22;5016110;28;19979;-86
2023/03/28 06:54:26;;;;;;;;;;;;;;;7.53;nan;102013.72;5013675;28;19917;-90
2023/03/28 06:56:51;;;;;;;;;;;;;;;7.50;nan;102018.63;5026122;28;19917;-89
2023/03/28 06:59:17;;;;;;;;;;;;;;;7.60;nan;102021.75;5020632;28;19988;-88
2023/03/28 07:01:42;;;;;;;;;;;;;;;7.66;nan;102022.81;5028428;28;19917;-88
2023/03/28 07:04:08;;;;;;;;;;;;;;;7.84;nan;102028.44;5022693;28;20004;-87
2023/03/28 07:06:33;;;;;;;;;;;;;;;8.03;nan;102029.53;5012821;28;20008;-85
2023/03/28 07:08:59;;;;;;;;;;;;;;;8.16;nan;102033.09;5016530;28;19934;-85
2023/03/28 07:11:25;;;;;;;;;;;;;;;8.25;nan;102032.91;5016656;28;20294;-86
2023/03/28 07:13:50;;;;;;;;;;;;;;;8.36;nan;102038.50;5018193;28;20007;-86
2023/03/28 07:16:16;;;;;;;;;;;;;;;8.41;nan;102044.06;5016379;28;19921;-86
2023/03/28 07:18:41;;;;;;;;;;;;;;;8.44;nan;102046.34;5016897;28;19925;-89
2023/03/28 07:21:10;;;;;;;;;;;;;;;8.51;nan;102050.88;5015951;28;19948;-86
2023/03/28 07:23:35;;;;;;;;;;;;;;;8.50;nan;102049.22;5013668;28;19917;-86
2023/03/28 07:26:01;;;;;;;;;;;;;;;8.49;nan;102051.09;5021408;28;19928;-90
2023/03/28 07:28:26;;;;;;;;;;;;;;;8.53;nan;102060.34;4998997;28;19928;-87
2023/03/28 07:30:53;;;;;;;;;;;;;;;8.61;nan;102061.97;5014977;28;19944;-90
2023/03/28 07:33:21;;;;;;;;;;;;;;;8.73;nan;102065.72;5017106;28;19928;-88
2023/03/28 07:35:46;;;;;;;;;;;;;;;8.77;nan;102069.63;5017508;28;20419;-92
2023/03/28 07:38:12;;;;;;;;;;;;;;;8.88;nan;102070.88;5026771;28;19925;-88
2023/03/28 07:40:38;;;;;;;;;;;;;;;8.99;nan;102065.75;5007255;28;20272;-88
2023/03/28 07:43:04;;;;;;;;;;;;;;;9.03;nan;102074.16;5024073;28;19922;-92
2023/03/28 07:45:30;;;;;;;;;;;;;;;9.06;nan;102065.72;5024346;28;20383;-89
2023/03/28 07:47:55;;;;;;;;;;;;;;;9.14;nan;102084.22;5031728;28;19916;-89
2023/03/28 07:50:26;;;;;;;;;;;;;;;9.11;nan;102089.16;5037096;28;20285;-91
2023/03/28 07:52:56;;;;;;;;;;;;;;;9.01;nan;102101.13;5038016;28;19917;-90
2023/03/28 07:55:25;;;;;;;;;;;;;;;9.12;nan;102104.19;5032318;28;19913;-91
2023/03/28 07:57:51;;;;;;;;;;;;;;;9.33;nan;102096.78;5042060;28;19970;-90
2023/03/28 08:00:24;;;;;;;;;;;;;;;9.54;nan;102100.28;5028719;28;20318;-92
2023/03/28 08:02:50;;;;;;;;;;;;;;;9.54;nan;102108.31;5041346;28;19924;-89
2023/03/28 08:05:16;;;;;;;;;;;;;;;9.48;nan;102101.09;5033719;28;19917;-91
2023/03/28 08:07:47;;;;;;;;;;;;;;;9.46;nan;102120.03;5028189;28;19980;-90
2023/03/28 08:10:19;;;;;;;;;;;;;;;9.47;nan;102121.66;5028428;28;20393;-90
2023/03/28 08:13:15;;;;;;;;;;;;;;;9.29;nan;102135.66;5027960;28;19917;-89
2023/03/28 08:15:58;;;;;;;;;;;;;;;9.12;nan;102146.97;5012192;28;19923;-91
2023/03/28 08:18:29;;;;;;;;;;;;;;;9.03;nan;102143.69;5022865;28;19933;-89
2023/03/28 08:20:58;;;;;;;;;;;;;;;8.87;nan;102152.09;5021404;28;20007;-88
2023/03/28 08:23:27;;;;;;;;;;;;;;;8.87;nan;102152.09;5024095;28;19921;-88
2023/03/28 08:26:19;;;;;;;;;;;;;;;8.96;nan;102150.84;5026096;28;19924;-90
2023/03/28 08:28:51;;;;;;;;;;;;;;;9.18;nan;102149.66;5017828;28;20011;-88
2023/03/28 08:31:50;;;;;;;;;;;;;;;9.34;nan;102159.16;5021322;28;19924;-89
2023/03/28 08:34:15;;;;;;;;;;;;;;;9.53;nan;102147.63;5009867;28;20386;-87
2023/03/28 08:37:16;;;;;;;;;;;;;;;9.63;nan;102141.81;5020573;28;19933;-89
2023/03/28 08:39:41;;;;;;;;;;;;;;;9.77;nan;102164.06;5018616;28;19968;-86
2023/03/28 08:42:19;;;;;;;;;;;;;;;9.77;nan;102161.38;5023224;28;19952;-88
2023/03/28 08:44:55;;;;;;;;;;;;;;;9.84;nan;102160.31;5020776;28;20008;-87
2023/03/28 08:47:29;;;;;;;;;;;;;;;9.88;nan;102169.59;5020802;28;20367;-86
2023/03/28 08:49:57;;;;;;;;;;;;;;;10.09;nan;102173.06;5021901;28;19971;-87
2023/03/28 08:52:39;;;;;;;;;;;;;;;10.28;nan;102189.09;5021784;28;19929;-88
2023/03/28 08:55:09;;;;;;;;;;;;;;;10.31;nan;102182.50;5023381;28;20011;-89
2023/03/28 08:57:35;;;;;;;;;;;;;;;10.31;nan;102179.81;5024072;28;19917;-86
2023/03/28 09:00:11;;;;;;;;;;;;;;;10.43;nan;102185.34;5019749;28;19929;-87
2023/03/28 09:02:43;;;;;;;;;;;;;;;10.48;nan;102199.75;5022728;28;20334;-89
2023/03/28 09:05:15;;;;;;;;;;;;;;;10.57;nan;102201.16;5025564;28;19929;-87
2023/03/28 09:07:45;;;;;;;;;;;;;;;10.70;nan;102207.50;5017427;28;20489;-88
2023/03/28 09:10:10;;;;;;;;;;;;;;;10.81;nan;102204.16;5019753;28;19921;-88
2023/03/28 09:12:42;;;;;;;;;;;;;;;10.86;nan;102205.16;5020995;28;20334;-89
2023/03/28 09:18:27;;;;;;;;;;;;;;;10.85;nan;102210.72;5018776;28;19971;-88
2023/03/28 09:20:53;;;;;;;;;;;;;;;10.79;nan;102222.31;5003388;28;19957;-88
2023/03/28 09:23:31;;;;;;;;;;;;;;;10.83;nan;102223.53;5020763;28;20334;-90
2023/03/28 09:25:59;;;;;;;;;;;;;;;11.02;nan;102222.59;5019060;28;19921;-88
2023/03/28 09:28:28;;;;;;;;;;;;;;;11.20;nan;102233.44;5019185;28;19921;-90
2023/03/28 09:30:55;;;;;;;;;;;;;;;11.24;nan;102235.66;5001990;28;20169;-89
2023/03/28 09:33:41;;;;;;;;;;;;;;;11.13;nan;102246.06;5021001;28;19921;-88
2023/03/28 09:36:11;;;;;;;;;;;;;;;11.03;nan;102234.16;5023138;28;19924;-90
2023/03/28 09:38:44;;;;;;;;;;;;;;;11.01;nan;102237.03;5016059;28;19921;-89
2023/03/28 09:41:13;;;;;;;;;;;;;;;11.02;nan;102251.28;5020154;28;19921;-90
2023/03/28 09:43:43;;;;;;;;;;;;;;;11.02;nan;102260.16;5007232;28;20291;-90
2023/03/28 09:46:14;;;;;;;;;;;;;;;11.18;nan;102253.47;5029219;28;19925;-89
2023/03/28 09:48:39;;;;;;;;;;;;;;;11.37;nan;102251.69;5031073;28;19949;-89
2023/03/28 09:51:11;;;;;;;;;;;;;;;11.48;nan;102259.03;5027513;28;20003;-91
2023/03/28 09:53:37;;;;;;;;;;;;;;;11.57;nan;102257.75;5021454;28;19924;-89
2023/03/28 09:56:07;;;;;;;;;;;;;;;11.72;nan;102260.13;5018087;28;19917;-90
2023/03/28 09:58:49;;;;;;;;;;;;;;;11.83;nan;102269.34;5022121;28;20024;-89
2023/03/28 10:01:24;;;;;;;;;;;;;;;11.92;nan;102271.53;5021767;28;19921;-88
2023/03/28 10:03:53;;;;;;;;;;;;;;;11.90;nan;102268.25;5016743;28;19922;-88
2023/03/28 10:06:24;;;;;;;;;;;;;;;11.93;nan;102285.78;5023342;28;20306;-91
2023/03/28 10:08:49;;;;;;;;;;;;;;;11.92;nan;102289.53;5016992;28;19921;-90
2023/03/28 10:11:16;;;;;;;;;;;;;;;11.88;nan;102288.31;5023719;28;19931;-89
2023/03/28 10:13:44;;;;;;;;;;;;;;;11.93;nan;102289.31;5018223;28;19964;-88
2023/03/28 10:16:11;;;;;;;;;;;;;;;12.01;nan;102301.63;5023199;28;19921;-89
2023/03/28 10:18:37;;;;;;;;;;;;;;;12.07;nan;102296.22;5018198;28;19968;-89
2023/03/28 10:21:08;;;;;;;;;;;;;;;11.93;nan;102293.84;4999257;28;20394;-90
2023/03/28 10:23:38;;;;;;;;;;;;;;;12.00;nan;102295.44;5017733;28;20093;-89
2023/03/28 10:26:03;;;;;;;;;;;;;;;12.16;nan;102307.47;5006084;28;20402;-89
2023/03/28 10:28:29;;;;;;;;;;;;;;;12.22;nan;102314.69;5020131;28;19927;-88
2023/03/28 10:30:56;;;;;;;;;;;;;;;12.10;nan;102319.94;5018602;28;20008;-88
2023/03/28 10:33:23;;;;;;;;;;;;;;;12.20;nan;102319.44;5021027;28;19959;-84
2023/03/28 10:36:00;;;;;;;;;;;;;;;12.31;nan;102313.34;5017727;28;19925;-90
2023/03/28 10:38:30;;;;;;;;;;;;;;;12.37;nan;102325.06;5021468;28;20401;-90
2023/03/28 10:41:03;;;;;;;;;;;;;;;12.53;nan;102327.19;5012311;28;19921;-89
2023/03/28 10:43:33;;;;;;;;;;;;;;;12.62;nan;102320.50;5022811;28;19970;-89
2023/03/28 10:46:03;;;;;;;;;;;;;;;12.75;nan;102314.16;5020215;28;19968;-88
2023/03/28 10:48:30;;;;;;;;;;;;;;;12.91;nan;102326.16;5016546;28;19925;-87
2023/03/28 10:50:57;;;;;;;;;;;;;;;13.08;nan;102318.28;5014747;28;19931;-87
2023/03/28 10:53:38;;;;;;;;;;;;;;;13.18;nan;102319.44;5019774;28;20385;-89
2023/03/28 10:56:04;;;;;;;;;;;;;;;13.25;nan;102322.84;5021406;28;19917;-88
2023/03/28 10:58:39;;;;;;;;;;;;;;;13.34;nan;102326.06;5018587;28;20104;-89
2023/03/28 11:01:23;;;;;;;;;;;;;;;13.41;nan;102334.84;5018192;28;19924;-89
2023/03/28 11:03:51;;;;;;;;;;;;;;;13.50;nan;102333.50;5013724;28;19964;-88
2023/03/28 11:06:20;;;;;;;;;;;;;;;13.57;nan;102331.53;5012487;28;19921;-89
2023/03/28 11:08:51;;;;;;;;;;;;;;;13.74;nan;102337.06;5019682;28;20198;-89
2023/03/28 11:11:28;;;;;;;;;;;;;;;13.90;nan;102343.69;5013169;28;19974;-90
2023/03/28 11:13:57;;;;;;;;;;;;;;;13.87;nan;102342.28;5018790;28;19925;-90
2023/03/28 11:16:37;;;;;;;;;;;;;;;13.85;nan;102348.94;5016366;28;20367;-90
2023/03/28 11:19:28;;;;;;;;;;;;;;;13.82;nan;102342.16;5014134;28;19975;-88
2023/03/28 11:22:10;;;;;;;;;;;;;;;13.73;nan;102343.53;5020779;28;19921;-88
2023/03/28 11:24:48;;;;;;;;;;;;;;;13.53;nan;102343.00;5001421;28;19922;-87
2023/03/28 11:27:16;;;;;;;;;;;;;;;13.68;nan;102340.69;5018483;28;19956;-89
2023/03/28 11:29:48;;;;;;;;;;;;;;;14.02;nan;102341.00;5018687;28;19925;-88
2023/03/28 11:32:42;;;;;;;;;;;;;;;14.21;nan;102347.94;5018231;28;20399;-88
2023/03/28 11:35:14;;;;;;;;;;;;;;;14.36;nan;102342.06;4994696;28;20003;-87
2023/03/28 11:37:43;;;;;;;;;;;;;;;14.51;nan;102343.28;4996445;28;20369;-88
2023/03/28 11:40:27;;;;;;;;;;;;;;;14.53;nan;102348.44;5015821;28;19962;-88
2023/03/28 11:42:56;;;;;;;;;;;;;;;14.64;nan;102358.41;5015934;28;20204;-87
2023/03/28 11:45:23;;;;;;;;;;;;;;;14.75;nan;102345.97;5017843;28;20216;-89
2023/03/28 11:48:08;;;;;;;;;;;;;;;14.77;nan;102344.69;5017204;28;20176;-88
2023/03/28 11:50:40;;;;;;;;;;;;;;;14.77;nan;102343.84;5020718;28;19921;-87
2023/03/28 11:53:17;;;;;;;;;;;;;;;14.84;nan;102343.72;5019085;28;20031;-88
2023/03/28 11:55:48;;;;;;;;;;;;;;;14.88;nan;102351.09;5017780;28;20028;-88
2023/03/28 11:58:20;;;;;;;;;;;;;;;14.79;nan;102342.56;5019092;28;20298;-87
2023/03/28 12:00:51;;;;;;;;;;;;;;;14.57;nan;102348.81;5016128;28;19932;-88
2023/03/28 12:03:30;;;;;;;;;;;;;;;14.49;nan;102342.69;5014596;28;19921;-90
2023/03/28 12:06:09;;;;;;;;;;;;;;;14.50;nan;102344.34;5016151;28;19925;-87
2023/03/28 12:08:45;;;;;;;;;;;;;;;14.60;nan;102338.38;5016862;28;19939;-88
2023/03/28 12:11:17;;;;;;;;;;;;;;;14.74;nan;102350.56;5021338;28;20365;-87
2023/03/28 12:13:53;;;;;;;;;;;;;;;14.85;nan;102332.69;5018367;28;19952;-87
2023/03/28 12:16:33;;;;;;;;;;;;;;;15.00;nan;102333.00;5015747;28;19967;-89
2023/03/28 12:19:00;;;;;;;;;;;;;;;15.22;nan;102343.97;5015143;28;20413;-87
2023/03/28 12:21:26;;;;;;;;;;;;;;;15.31;nan;102331.72;5016523;28;19929;-89
2023/03/28 12:24:03;;;;;;;;;;;;;;;15.52;nan;102335.63;5016771;28;19917;-87
2023/03/28 12:26:35;;;;;;;;;;;;;;;15.70;nan;102323.81;5016914;28;20027;-87
2023/03/28 12:29:27;;;;;;;;;;;;;;;15.73;nan;102331.44;5018648;28;19928;-89
2023/03/28 12:32:11;;;;;;;;;;;;;;;15.73;nan;102336.00;5016862;28;19998;-88
2023/03/28 12:34:40;;;;;;;;;;;;;;;15.86;nan;102331.13;5015716;28;20272;-87
2023/03/28 12:37:19;;;;;;;;;;;;;;;16.04;nan;102331.94;5017115;28;20582;-88
2023/03/28 12:39:54;;;;;;;;;;;;;;;16.13;nan;102330.47;5015519;28;20343;-87
2023/03/28 12:42:22;;;;;;;;;;;;;;;16.05;nan;102339.81;5018750;28;20326;-88
2023/03/28 12:44:51;;;;;;;;;;;;;;;15.96;nan;102333.16;5015879;28;20429;-86
2023/03/28 12:47:25;;;;;;;;;;;;;;;15.96;nan;102333.97;5016973;28;19921;-89
2023/03/28 12:49:50;;;;;;;;;;;;;;;16.07;nan;102334.16;5015997;28;19917;-87
2023/03/28 12:52:38;;;;;;;;;;;;;;;16.21;nan;102338.16;5021626;28;19928;-87
2023/03/28 12:55:26;;;;;;;;;;;;;;;16.24;nan;102343.09;5012438;28;19918;-85
2023/03/28 12:58:09;;;;;;;;;;;;;;;16.27;nan;102342.59;5015017;28;19917;-87
2023/03/28 13:00:46;;;;;;;;;;;;;;;16.43;nan;102335.53;5016837;28;19990;-88
2023/03/28 13:03:30;;;;;;;;;;;;;;;16.47;nan;102336.66;5017362;28;19968;-86
2023/03/28 13:06:01;;;;;;;;;;;;;;;16.45;nan;102333.38;5014303;28;20318;-87
2023/03/28 13:08:39;;;;;;;;;;;;;;;16.47;nan;102325.81;5013306;28;19921;-85
2023/03/28 13:11:08;;;;;;;;;;;;;;;16.47;nan;102339.34;5017547;28;20071;-87
2023/03/28 13:13:45;;;;;;;;;;;;;;;16.53;nan;102338.38;5013031;28;19949;-87
2023/03/28 13:16:21;;;;;;;;;;;;;;;16.66;nan;102339.88;5019257;28;19927;-87
2023/03/28 13:19:03;;;;;;;;;;;;;;;16.72;nan;102338.94;5004077;28;20410;-86
2023/03/28 13:21:48;;;;;;;;;;;;;;;16.88;nan;102343.50;5016443;28;19926;-86